Time;durP1;ratioP1;P1;durP2;ratioP2;P2;SDS_P1;SDS_P2;PMS_P1;PMS_P2;Temp;Humidity;BMP_temperature;BMP_pressure;BME280_temperature;BME280_humidity;BME280_pressure;Samples;Min_cycle;Max_cycle;Signal;HPM_P1;HPM_P2
2022/08/23 00:01:56;;;;;;;15.27;7.70;;;23.50;92.90;;;;;;5049107;28;20017;-67
2022/08/23 00:04:25;;;;;;;14.20;7.35;;;23.50;93.00;;;;;;5035777;28;20100;-68
2022/08/23 00:06:52;;;;;;;17.17;7.47;;;23.60;93.00;;;;;;5035635;28;20009;-68
2022/08/23 00:09:21;;;;;;;14.88;7.75;;;23.50;93.00;;;;;;5035308;28;20029;-68
2022/08/23 00:12:07;;;;;;;11.98;7.47;;;23.50;93.00;;;;;;5049330;28;20386;-68
2022/08/23 00:14:36;;;;;;;14.50;7.25;;;23.50;93.10;;;;;;5034961;28;20029;-68
2022/08/23 00:17:03;;;;;;;12.95;7.45;;;23.40;93.20;;;;;;5035171;28;20147;-68
2022/08/23 00:19:29;;;;;;;11.48;7.68;;;23.40;93.30;;;;;;5035477;28;20445;-67
2022/08/23 00:21:55;;;;;;;14.38;7.88;;;23.40;93.30;;;;;;5042965;28;20463;-67
2022/08/23 00:24:22;;;;;;;10.77;7.10;;;23.40;93.40;;;;;;5046538;28;20041;-68
2022/08/23 00:26:59;;;;;;;11.70;7.53;;;23.40;93.50;;;;;;5055238;28;20021;-68
2022/08/23 00:29:41;;;;;;;12.75;6.03;;;23.40;93.50;;;;;;5055120;28;20389;-67
2022/08/23 00:32:10;;;;;;;15.00;6.00;;;23.40;93.60;;;;;;5053074;28;20371;-68
2022/08/23 00:34:36;;;;;;;12.50;6.55;;;23.30;93.60;;;;;;5055216;28;20028;-68
2022/08/23 00:37:03;;;;;;;14.75;6.53;;;23.30;93.80;;;;;;5054506;28;20409;-68
2022/08/23 00:39:28;;;;;;;10.15;6.68;;;23.30;93.70;;;;;;5054897;28;20482;-68
2022/08/23 00:47:38;;;;;;;12.40;6.65;;;23.30;93.70;;;;;;5053434;28;20139;-68
2022/08/23 00:47:41;;;;;;;12.43;7.68;;;23.30;93.80;;;;;;5055055;28;20035;-68
2022/08/23 00:50:24;;;;;;;12.20;8.57;;;23.20;93.80;;;;;;5054841;28;20043;-67
2022/08/23 00:53:10;;;;;;;11.43;7.70;;;23.20;93.70;;;;;;5034531;28;20069;-68
2022/08/23 00:55:37;;;;;;;15.13;8.70;;;23.20;93.70;;;;;;5034880;28;20022;-67
2022/08/23 00:58:03;;;;;;;16.83;8.07;;;23.10;93.80;;;;;;5035889;28;20037;-67
2022/08/23 01:00:30;;;;;;;14.13;7.53;;;23.10;93.80;;;;;;5034666;28;20029;-67
2022/08/23 01:02:56;;;;;;;14.10;7.32;;;23.00;93.80;;;;;;5035373;28;20028;-68
2022/08/23 01:05:30;;;;;;;10.23;7.10;;;23.10;93.90;;;;;;5045522;28;20067;-68
2022/08/23 01:07:58;;;;;;;17.67;8.00;;;23.10;94.00;;;;;;5042248;28;20029;-68
2022/08/23 01:10:40;;;;;;;13.20;7.70;;;23.00;94.00;;;;;;5041133;28;20409;-67
2022/08/23 01:13:14;;;;;;;14.35;7.60;;;23.00;94.10;;;;;;5042745;28;20075;-68
2022/08/23 01:15:47;;;;;;;13.27;7.53;;;23.00;94.20;;;;;;5038505;28;20017;-68
2022/08/23 01:18:16;;;;;;;10.82;6.70;;;23.00;94.30;;;;;;5041653;28;20382;-67
2022/08/23 01:20:54;;;;;;;11.13;6.97;;;22.90;94.40;;;;;;5046585;28;20454;-67
2022/08/23 01:23:32;;;;;;;8.27;6.72;;;22.90;94.30;;;;;;5065829;28;20033;-67
2022/08/23 01:25:59;;;;;;;12.90;6.95;;;22.90;94.40;;;;;;5033490;28;20109;-67
2022/08/23 01:28:25;;;;;;;10.52;6.82;;;22.90;94.50;;;;;;5044940;28;20036;-67
2022/08/23 01:30:51;;;;;;;7.80;5.82;;;22.80;94.40;;;;;;5038395;28;20422;-67
2022/08/23 01:33:16;;;;;;;11.57;6.47;;;22.90;94.50;;;;;;5046210;28;20021;-67
2022/08/23 01:35:48;;;;;;;11.77;6.43;;;22.80;94.50;;;;;;5053644;28;20040;-67
2022/08/23 01:38:14;;;;;;;12.82;7.57;;;22.80;94.60;;;;;;5053455;28;20040;-67
2022/08/23 01:40:41;;;;;;;10.90;6.93;;;22.80;94.50;;;;;;5053860;28;20394;-67
2022/08/23 01:43:07;;;;;;;12.20;7.20;;;22.80;94.50;;;;;;5053518;28;20047;-68
2022/08/23 01:45:34;;;;;;;14.38;6.88;;;22.80;94.80;;;;;;5051663;28;20056;-67
2022/08/23 01:48:01;;;;;;;16.75;7.65;;;22.70;94.80;;;;;;5053683;28;20021;-67
2022/08/23 01:50:27;;;;;;;13.95;6.88;;;22.70;94.70;;;;;;5053557;28;20061;-68
2022/08/23 01:52:53;;;;;;;11.95;6.90;;;22.70;94.60;;;;;;5034985;28;20026;-67
2022/08/23 01:55:20;;;;;;;10.23;6.72;;;22.60;94.80;;;;;;5033556;28;20032;-68
2022/08/23 01:57:49;;;;;;;12.23;7.07;;;22.60;94.80;;;;;;5033118;28;20142;-68
2022/08/23 02:00:15;;;;;;;16.48;6.47;;;22.70;94.80;;;;;;5044952;28;20109;-68
2022/08/23 02:02:41;;;;;;;11.23;6.95;;;22.60;94.80;;;;;;5033565;28;20018;-68
2022/08/23 02:05:08;;;;;;;9.77;6.88;;;22.60;94.80;;;;;;5033321;28;20065;-68
2022/08/23 02:07:35;;;;;;;11.45;6.90;;;22.60;94.80;;;;;;5033322;28;20104;-68
2022/08/23 02:10:01;;;;;;;10.68;6.03;;;22.50;95.00;;;;;;5034291;28;20046;-68
2022/08/23 02:12:26;;;;;;;10.68;6.10;;;22.50;95.00;;;;;;5033448;28;20041;-68
2022/08/23 02:14:52;;;;;;;12.35;5.93;;;22.50;95.10;;;;;;5033375;28;20351;-68
2022/08/23 02:17:18;;;;;;;10.30;5.82;;;22.50;95.20;;;;;;5033502;28;20025;-68
2022/08/23 02:19:44;;;;;;;13.88;6.28;;;22.50;95.20;;;;;;5047593;28;20036;-68
2022/08/23 02:22:11;;;;;;;10.85;6.32;;;22.40;95.20;;;;;;5034947;28;20026;-67
2022/08/23 02:24:43;;;;;;;11.95;6.80;;;22.40;95.10;;;;;;5033269;28;20406;-68
2022/08/23 02:27:09;;;;;;;10.20;5.70;;;22.40;95.10;;;;;;5033264;28;20022;-67
2022/08/23 02:29:35;;;;;;;12.88;6.45;;;22.40;95.10;;;;;;5032807;28;20204;-68
2022/08/23 02:32:02;;;;;;;12.23;6.85;;;22.40;95.20;;;;;;5033002;28;20089;-67
2022/08/23 02:34:30;;;;;;;12.10;5.80;;;22.30;95.30;;;;;;5038714;28;20421;-67
2022/08/23 02:36:56;;;;;;;10.73;5.88;;;22.30;95.40;;;;;;5052883;28;20519;-69
2022/08/23 02:39:22;;;;;;;9.82;6.35;;;22.30;95.50;;;;;;5052640;28;20033;-68
2022/08/23 02:41:48;;;;;;;12.98;6.05;;;22.20;95.40;;;;;;5050433;28;20116;-68
2022/08/23 02:44:14;;;;;;;8.95;6.55;;;22.20;95.50;;;;;;5052807;28;20096;-68
2022/08/23 02:46:41;;;;;;;13.38;6.80;;;22.20;95.50;;;;;;5053101;28;20524;-68
2022/08/23 02:49:07;;;;;;;12.02;6.47;;;22.20;95.50;;;;;;5048293;28;20025;-67
2022/08/23 02:51:33;;;;;;;8.25;5.82;;;22.20;95.40;;;;;;5032981;28;20045;-67
2022/08/23 02:53:58;;;;;;;11.07;7.32;;;22.20;95.40;;;;;;5032847;28;20021;-68
2022/08/23 02:56:24;;;;;;;8.98;6.45;;;22.20;95.40;;;;;;5042962;28;20030;-68
2022/08/23 02:58:50;;;;;;;10.80;6.88;;;22.20;95.40;;;;;;5032976;28;20018;-68
2022/08/23 03:01:17;;;;;;;15.32;8.00;;;22.20;95.40;;;;;;5032774;28;20025;-68
2022/08/23 03:03:44;;;;;;;11.77;7.72;;;22.10;95.30;;;;;;5032701;28;20033;-68
2022/08/23 03:06:11;;;;;;;13.45;8.38;;;22.10;95.30;;;;;;5035138;28;20049;-68
2022/08/23 03:08:36;;;;;;;14.75;7.90;;;22.10;95.40;;;;;;5046694;28;20086;-67
2022/08/23 03:11:10;;;;;;;13.60;8.60;;;22.10;95.30;;;;;;5031595;28;20486;-68
2022/08/23 03:13:36;;;;;;;13.50;9.15;;;22.00;95.30;;;;;;5030272;28;20029;-67
2022/08/23 03:16:02;;;;;;;16.73;10.27;;;22.00;95.30;;;;;;5032743;28;20097;-67
2022/08/23 03:18:27;;;;;;;13.80;9.43;;;22.00;95.40;;;;;;5032718;28;20025;-67
2022/08/23 03:20:53;;;;;;;15.77;9.93;;;22.00;95.30;;;;;;5032703;28;20057;-67
2022/08/23 03:23:19;;;;;;;10.35;9.20;;;22.00;95.30;;;;;;5032568;28;20064;-67
2022/08/23 03:25:44;;;;;;;13.23;9.73;;;22.00;95.30;;;;;;5033434;28;20061;-67
2022/08/23 03:28:10;;;;;;;14.57;9.45;;;22.10;95.20;;;;;;5032262;28;20084;-67
2022/08/23 03:30:36;;;;;;;15.75;8.88;;;22.00;95.40;;;;;;5032278;28;20033;-67
2022/08/23 03:33:02;;;;;;;11.05;8.02;;;22.00;95.40;;;;;;5032679;28;20398;-68
2022/08/23 03:35:28;;;;;;;16.90;8.32;;;21.90;95.50;;;;;;5039812;28;20139;-68
2022/08/23 03:37:54;;;;;;;14.32;8.15;;;21.90;95.50;;;;;;5052170;28;20021;-68
2022/08/23 03:40:21;;;;;;;13.50;8.85;;;21.90;95.50;;;;;;5052664;28;20067;-67
2022/08/23 03:42:48;;;;;;;10.82;8.40;;;21.90;95.50;;;;;;5052513;28;20017;-68
2022/08/23 03:45:13;;;;;;;14.20;8.45;;;21.80;95.60;;;;;;5033081;28;20034;-68
2022/08/23 03:47:39;;;;;;;13.10;8.55;;;21.80;95.50;;;;;;5033138;28;20048;-67
2022/08/23 03:50:05;;;;;;;12.30;8.20;;;21.80;95.50;;;;;;5054054;28;20098;-67
2022/08/23 03:52:31;;;;;;;15.48;8.30;;;21.80;95.50;;;;;;5035368;28;20103;-68
2022/08/23 03:54:57;;;;;;;11.02;8.20;;;21.80;95.50;;;;;;5036030;28;20061;-68
2022/08/23 03:57:23;;;;;;;12.57;9.18;;;21.80;95.60;;;;;;5035806;28;20026;-67
2022/08/23 03:59:48;;;;;;;12.32;8.20;;;21.70;95.60;;;;;;5043349;28;20040;-67
2022/08/23 04:02:15;;;;;;;15.60;9.40;;;21.80;95.60;;;;;;5054733;28;20060;-68
2022/08/23 04:04:41;;;;;;;16.10;9.20;;;21.70;95.50;;;;;;5055744;28;20112;-68
2022/08/23 04:07:07;;;;;;;13.05;8.88;;;21.70;95.90;;;;;;5055441;28;20053;-68
2022/08/23 04:09:33;;;;;;;16.80;10.02;;;21.70;95.60;;;;;;5053880;28;20048;-67
2022/08/23 04:11:58;;;;;;;14.10;9.15;;;21.70;95.70;;;;;;5054650;28;20029;-67
2022/08/23 04:14:24;;;;;;;13.57;9.57;;;21.70;95.60;;;;;;5055212;28;20041;-67
2022/08/23 04:16:50;;;;;;;13.52;9.88;;;21.70;95.70;;;;;;5055400;28;20108;-67
2022/08/23 04:19:16;;;;;;;14.20;9.57;;;21.60;95.60;;;;;;5053335;28;20027;-68
2022/08/23 04:21:47;;;;;;;12.05;8.98;;;21.60;95.60;;;;;;5054537;28;20118;-68
2022/08/23 04:24:13;;;;;;;14.82;8.82;;;21.60;95.50;;;;;;5055376;28;20021;-67
2022/08/23 04:26:40;;;;;;;14.65;9.70;;;21.60;95.60;;;;;;5045391;28;20111;-67
2022/08/23 04:29:05;;;;;;;15.70;9.45;;;21.60;95.60;;;;;;5052288;28;20044;-67
2022/08/23 04:31:32;;;;;;;15.70;9.60;;;21.60;95.70;;;;;;5055261;28;20398;-67
2022/08/23 04:33:58;;;;;;;12.55;9.27;;;21.50;95.70;;;;;;5055116;28;20028;-67
2022/08/23 04:36:24;;;;;;;17.33;9.55;;;21.50;95.70;;;;;;5044072;28;20026;-67
2022/08/23 04:38:50;;;;;;;11.63;9.77;;;21.50;95.70;;;;;;5042137;28;20021;-67
2022/08/23 04:44:01;;;;;;;12.80;9.90;;;21.50;95.80;;;;;;5051995;28;20167;-67
2022/08/23 04:46:26;;;;;;;14.30;8.98;;;21.40;95.80;;;;;;5036991;28;20108;-67
2022/08/23 04:48:52;;;;;;;14.30;9.32;;;21.50;95.90;;;;;;5034055;28;20037;-67
2022/08/23 04:51:18;;;;;;;15.02;10.07;;;21.50;95.90;;;;;;5034927;28;20029;-68
2022/08/23 04:53:44;;;;;;;13.45;9.88;;;21.40;95.80;;;;;;5034380;28;20029;-68
2022/08/23 04:56:10;;;;;;;14.25;10.07;;;21.40;95.80;;;;;;5042958;28;20514;-68
2022/08/23 04:58:37;;;;;;;14.55;9.27;;;21.40;95.80;;;;;;5034399;28;20104;-68
2022/08/23 05:01:06;;;;;;;16.30;9.63;;;21.40;95.80;;;;;;5036913;28;20458;-67
2022/08/23 05:03:33;;;;;;;17.42;10.98;;;21.40;95.70;;;;;;5042885;28;20071;-69
2022/08/23 05:05:59;;;;;;;26.00;12.23;;;21.10;95.70;;;;;;5034634;28;20165;-69
2022/08/23 05:08:26;;;;;;;17.60;12.02;;;20.60;96.60;;;;;;5031738;28;20442;-68
2022/08/23 05:10:51;;;;;;;18.85;11.05;;;20.30;97.50;;;;;;5034223;28;20052;-70
2022/08/23 05:13:17;;;;;;;19.27;12.52;;;20.10;98.10;;;;;;5033548;28;20014;-69
2022/08/23 05:15:43;;;;;;;19.33;12.10;;;19.90;98.60;;;;;;5048896;28;20025;-69
2022/08/23 05:18:09;;;;;;;17.55;12.70;;;19.90;98.90;;;;;;5052911;28;20029;-68
2022/08/23 05:20:35;;;;;;;20.10;12.82;;;19.90;98.90;;;;;;5054361;28;20051;-69
2022/08/23 05:23:01;;;;;;;21.20;12.95;;;19.90;99.30;;;;;;5053958;28;20016;-69
2022/08/23 05:25:48;;;;;;;16.58;12.25;;;19.80;99.50;;;;;;5041779;28;20037;-69
2022/08/23 05:28:13;;;;;;;19.30;12.95;;;19.80;99.70;;;;;;5033714;28;20041;-69
2022/08/23 05:30:39;;;;;;;24.00;14.90;;;19.70;99.80;;;;;;5034101;28;20087;-70
2022/08/23 05:33:04;;;;;;;22.20;12.50;;;19.70;99.90;;;;;;5034027;28;20486;-69
2022/08/23 05:35:30;;;;;;;18.33;12.80;;;19.50;99.90;;;;;;5035942;28;20596;-69
2022/08/23 05:37:59;;;;;;;23.08;13.75;;;19.50;99.90;;;;;;5053601;28;20036;-69
2022/08/23 05:40:28;;;;;;;19.35;11.93;;;19.50;99.90;;;;;;5053971;28;20389;-69
2022/08/23 05:42:53;;;;;;;21.33;12.63;;;19.60;99.90;;;;;;5038991;28;20033;-69
2022/08/23 05:45:19;;;;;;;21.40;12.15;;;19.60;99.90;;;;;;5042173;28;20040;-69
2022/08/23 05:47:45;;;;;;;18.70;12.10;;;19.60;99.90;;;;;;5047914;28;20536;-69
2022/08/23 05:50:12;;;;;;;19.05;11.73;;;19.60;99.90;;;;;;5043056;28;20047;-69
2022/08/23 05:52:38;;;;;;;25.08;12.50;;;19.60;99.90;;;;;;5050067;28;20032;-69
2022/08/23 05:55:05;;;;;;;20.00;12.57;;;19.60;99.90;;;;;;5048399;28;20026;-69
2022/08/23 05:57:34;;;;;;;20.52;12.60;;;19.60;99.90;;;;;;5050184;28;20075;-69
2022/08/23 05:59:59;;;;;;;19.63;11.52;;;19.50;99.90;;;;;;5047228;28;20029;-69
2022/08/23 06:02:25;;;;;;;20.20;12.02;;;19.50;99.90;;;;;;5038910;28;20533;-70
2022/08/23 06:04:51;;;;;;;21.77;11.98;;;19.60;99.90;;;;;;5046244;28;20418;-69
2022/08/23 06:07:16;;;;;;;20.25;12.40;;;19.60;99.90;;;;;;5040852;28;20025;-70
2022/08/23 06:09:42;;;;;;;20.52;13.68;;;19.60;99.90;;;;;;5038920;28;20032;-70
2022/08/23 06:12:07;;;;;;;18.65;12.80;;;19.50;99.90;;;;;;5048473;28;20025;-69
2022/08/23 06:14:33;;;;;;;18.27;12.48;;;19.60;99.90;;;;;;5037464;28;20017;-69
2022/08/23 06:16:59;;;;;;;25.50;14.82;;;19.70;99.90;;;;;;5034516;28;20103;-69
2022/08/23 06:19:24;;;;;;;22.42;13.65;;;19.80;99.90;;;;;;5041018;28;20478;-70
2022/08/23 06:21:51;;;;;;;25.33;12.75;;;19.90;99.90;;;;;;5038905;28;20025;-70
2022/08/23 06:24:17;;;;;;;20.77;13.32;;;20.10;99.90;;;;;;5041348;28;20029;-69
2022/08/23 06:26:44;;;;;;;17.90;11.60;;;20.50;99.60;;;;;;5040369;28;20075;-74
2022/08/23 06:29:12;;;;;;;15.90;10.65;;;20.90;98.60;;;;;;5032095;28;20022;-74
2022/08/23 06:31:46;;;;;;;20.35;11.70;;;21.20;97.60;;;;;;5032031;28;20030;-74
2022/08/23 06:34:18;;;;;;;20.38;12.73;;;21.60;96.90;;;;;;5033217;28;20026;-74
2022/08/23 06:36:45;;;;;;;19.00;11.77;;;21.80;96.40;;;;;;5034164;28;20386;-73
2022/08/23 06:39:13;;;;;;;20.20;10.18;;;22.00;96.00;;;;;;5046820;28;20029;-74
2022/08/23 06:41:38;;;;;;;13.57;8.30;;;22.10;95.50;;;;;;5053266;28;20029;-75
2022/08/23 06:44:05;;;;;;;15.52;7.30;;;22.30;95.20;;;;;;5042029;28;20036;-74
2022/08/23 06:46:31;;;;;;;13.18;7.38;;;22.40;94.80;;;;;;5044080;28;20075;-73
2022/08/23 06:48:59;;;;;;;15.90;8.07;;;22.50;94.70;;;;;;5046246;28;20033;-74
2022/08/23 06:51:34;;;;;;;11.10;7.40;;;22.60;94.40;;;;;;5032623;28;20505;-72
2022/08/23 06:54:01;;;;;;;15.40;8.65;;;22.70;94.20;;;;;;5032664;28;20028;-74
2022/08/23 06:56:28;;;;;;;16.23;8.55;;;22.70;94.00;;;;;;5032832;28;20076;-74
2022/08/23 06:58:53;;;;;;;14.23;7.43;;;22.70;94.00;;;;;;5032824;28;20088;-74
2022/08/23 07:01:31;;;;;;;15.48;7.75;;;22.80;93.80;;;;;;5032828;28;20022;-74
2022/08/23 07:03:58;;;;;;;18.95;8.68;;;22.90;93.80;;;;;;5032615;28;20044;-74
2022/08/23 07:06:25;;;;;;;14.50;7.78;;;22.90;93.70;;;;;;5032550;28;20025;-74
2022/08/23 07:08:51;;;;;;;17.02;7.85;;;22.90;93.60;;;;;;5032806;28;20497;-74
2022/08/23 07:11:18;;;;;;;14.50;7.60;;;22.90;93.50;;;;;;5032737;28;20120;-74
2022/08/23 07:13:44;;;;;;;18.17;7.60;;;22.90;93.50;;;;;;5031659;28;20064;-75
2022/08/23 07:16:10;;;;;;;15.35;7.18;;;22.90;93.70;;;;;;5032624;28;20026;-74
2022/08/23 07:18:36;;;;;;;14.77;7.22;;;23.00;93.40;;;;;;5032413;28;20032;-74
2022/08/23 07:21:03;;;;;;;13.73;7.18;;;23.00;93.40;;;;;;5032484;28;20467;-75
2022/08/23 07:23:32;;;;;;;12.05;6.65;;;23.10;93.70;;;;;;5032327;28;20029;-74
2022/08/23 07:26:02;;;;;;;12.52;7.05;;;23.10;93.60;;;;;;5035930;28;20033;-74
2022/08/23 07:28:28;;;;;;;11.18;6.38;;;23.10;93.80;;;;;;5036413;28;20028;-76
2022/08/23 07:30:54;;;;;;;11.60;6.30;;;23.10;93.60;;;;;;5036169;28;20037;-78
2022/08/23 07:33:21;;;;;;;16.25;6.65;;;23.20;93.70;;;;;;5036382;28;20097;-74
2022/08/23 07:35:49;;;;;;;14.77;6.30;;;23.20;93.70;;;;;;5036333;28;20033;-77
2022/08/23 07:38:15;;;;;;;13.60;6.60;;;23.30;93.70;;;;;;5035812;28;20029;-79
2022/08/23 07:40:41;;;;;;;13.57;5.95;;;23.30;94.20;;;;;;5036652;28;20026;-79
2022/08/23 07:43:06;;;;;;;11.63;6.72;;;23.30;94.00;;;;;;5036214;28;20022;-77
2022/08/23 07:45:34;;;;;;;12.98;5.68;;;23.30;94.00;;;;;;5036070;28;20553;-77
2022/08/23 07:48:00;;;;;;;9.65;4.38;;;23.40;93.80;;;;;;5034876;28;20079;-76
2022/08/23 07:50:27;;;;;;;11.48;4.45;;;23.40;93.90;;;;;;5036110;28;20029;-78
2022/08/23 07:52:52;;;;;;;11.05;4.38;;;23.40;93.70;;;;;;5035705;28;20028;-78
2022/08/23 07:55:18;;;;;;;7.75;3.90;;;23.50;93.50;;;;;;5035991;28;20030;-77
2022/08/23 07:57:43;;;;;;;9.88;3.83;;;23.50;93.20;;;;;;5036289;28;20083;-79
2022/08/23 08:00:09;;;;;;;6.90;3.40;;;23.60;93.40;;;;;;5055847;28;20028;-77
2022/08/23 08:02:35;;;;;;;8.38;3.58;;;23.60;93.10;;;;;;5055717;28;20017;-79
2022/08/23 08:05:00;;;;;;;9.05;3.58;;;23.70;93.00;;;;;;5055762;28;20036;-78
2022/08/23 08:07:26;;;;;;;7.22;3.08;;;23.70;92.70;;;;;;5037721;28;20455;-78
2022/08/23 08:09:52;;;;;;;7.07;2.72;;;23.70;92.70;;;;;;5034680;28;20493;-77
2022/08/23 08:12:18;;;;;;;7.05;2.67;;;23.80;92.80;;;;;;5034486;28;20026;-77
2022/08/23 08:14:44;;;;;;;9.60;3.15;;;23.80;92.90;;;;;;5034441;28;20048;-75
2022/08/23 08:17:10;;;;;;;7.20;2.60;;;23.90;92.70;;;;;;5044965;28;20021;-77
2022/08/23 08:19:36;;;;;;;7.30;2.75;;;24.00;92.50;;;;;;5054224;28;20473;-76
2022/08/23 08:22:01;;;;;;;6.25;2.60;;;23.90;92.30;;;;;;5044248;28;20025;-76
2022/08/23 08:24:27;;;;;;;9.07;2.85;;;24.00;92.30;;;;;;5034334;28;20036;-78
2022/08/23 08:26:53;;;;;;;6.40;2.55;;;24.00;92.20;;;;;;5051640;28;20032;-75
2022/08/23 08:29:18;;;;;;;6.32;2.63;;;24.00;92.20;;;;;;5047441;28;20017;-75
2022/08/23 08:31:46;;;;;;;5.65;2.72;;;24.00;92.00;;;;;;5053444;28;20037;-75
2022/08/23 08:34:12;;;;;;;5.47;2.20;;;24.10;91.90;;;;;;5037387;28;20535;-78
2022/08/23 08:36:46;;;;;;;6.43;1.80;;;24.10;92.10;;;;;;5036676;28;20056;-75
2022/08/23 08:39:15;;;;;;;4.35;2.10;;;24.10;91.80;;;;;;5039319;28;20490;-75
2022/08/23 08:41:55;;;;;;;5.30;2.15;;;24.10;91.70;;;;;;5038516;28;20030;-75
2022/08/23 08:44:20;;;;;;;5.40;2.15;;;24.20;91.70;;;;;;5046595;28;20086;-73
2022/08/23 08:46:53;;;;;;;6.30;2.17;;;24.20;91.80;;;;;;5052713;28;20042;-72
2022/08/23 08:49:34;;;;;;;5.22;2.13;;;24.20;91.70;;;;;;5048040;28;20049;-72
2022/08/23 08:52:21;;;;;;;7.20;1.92;;;24.20;91.60;;;;;;5033214;28;20104;-72
2022/08/23 08:54:49;;;;;;;6.53;2.20;;;24.30;91.60;;;;;;5034138;28;20028;-72
2022/08/23 08:57:19;;;;;;;5.75;2.30;;;24.30;91.70;;;;;;5052974;28;20115;-79
2022/08/23 08:59:57;;;;;;;8.70;2.10;;;24.30;91.70;;;;;;5053939;28;20036;-75
2022/08/23 09:02:31;;;;;;;5.10;1.95;;;24.30;91.60;;;;;;5053466;28;20541;-75
2022/08/23 09:04:57;;;;;;;5.85;1.70;;;24.30;91.60;;;;;;5053118;28;20020;-74
2022/08/23 09:07:51;;;;;;;6.00;1.95;;;24.40;91.60;;;;;;5047538;28;20029;-74
2022/08/23 09:10:29;;;;;;;6.32;2.05;;;24.30;91.60;;;;;;5032949;28;20040;-75
2022/08/23 09:13:16;;;;;;;5.95;2.65;;;24.40;91.60;;;;;;5032098;28;20471;-77
2022/08/23 09:15:54;;;;;;;4.80;2.05;;;24.40;91.70;;;;;;5032032;28;20471;-79
2022/08/23 09:18:22;;;;;;;7.93;2.20;;;24.40;91.60;;;;;;5035426;28;20030;-78
2022/08/23 09:20:52;;;;;;;5.90;1.92;;;24.40;91.60;;;;;;5042677;28;20018;-78
2022/08/23 09:23:39;;;;;;;11.68;2.67;;;24.50;91.60;;;;;;5034238;28;20467;-78
2022/08/23 09:26:21;;;;;;;6.10;1.58;;;24.50;91.60;;;;;;5034381;28;20120;-78
2022/08/23 09:28:49;;;;;;;6.53;1.90;;;24.40;91.60;;;;;;5037200;28;20100;-78
2022/08/23 09:31:36;;;;;;;5.68;1.73;;;24.50;91.70;;;;;;5040896;28;20494;-76
2022/08/23 09:34:02;;;;;;;6.10;1.92;;;24.50;91.70;;;;;;5037024;28;20021;-76
2022/08/23 09:36:33;;;;;;;6.13;2.08;;;24.50;91.60;;;;;;5043056;28;20032;-77
2022/08/23 09:39:02;;;;;;;5.65;2.03;;;24.50;91.60;;;;;;5034158;28;20060;-76
2022/08/23 09:41:36;;;;;;;5.22;1.92;;;24.60;91.60;;;;;;5049881;28;20029;-77
2022/08/23 09:44:07;;;;;;;5.95;1.98;;;24.50;91.60;;;;;;5051361;28;20020;-76
2022/08/23 09:46:37;;;;;;;5.55;1.80;;;24.60;91.60;;;;;;5047747;28;20029;-76
2022/08/23 09:49:23;;;;;;;5.13;2.08;;;24.60;91.60;;;;;;5033343;28;20107;-76
2022/08/23 09:51:49;;;;;;;4.30;1.90;;;24.60;91.60;;;;;;5033733;28;20034;-77
2022/08/23 09:54:25;;;;;;;5.50;1.70;;;24.60;91.70;;;;;;5033443;28;20017;-76
2022/08/23 09:56:58;;;;;;;5.95;2.08;;;24.60;91.60;;;;;;5032073;28;20025;-76
2022/08/23 09:59:24;;;;;;;4.47;1.80;;;24.60;91.60;;;;;;5033217;28;20010;-76
2022/08/23 10:01:52;;;;;;;7.22;2.30;;;24.70;91.40;;;;;;5033498;28;20048;-76
2022/08/23 10:04:23;;;;;;;6.30;2.83;;;24.80;91.50;;;;;;5037677;28;20029;-77
2022/08/23 10:06:50;;;;;;;5.22;1.83;;;24.90;91.40;;;;;;5050081;28;20406;-75
2022/08/23 10:09:27;;;;;;;10.82;2.25;;;24.80;91.20;;;;;;5035069;28;20030;-75
2022/08/23 10:11:55;;;;;;;4.28;1.80;;;24.80;91.40;;;;;;5044467;28;20159;-75
2022/08/23 10:14:23;;;;;;;7.13;2.45;;;24.80;91.40;;;;;;5049242;28;20048;-75
2022/08/23 10:16:54;;;;;;;9.73;2.10;;;24.80;91.40;;;;;;5046326;28;20025;-75
2022/08/23 10:19:33;;;;;;;7.55;2.85;;;24.90;91.50;;;;;;5048940;28;20040;-75
2022/08/23 10:22:19;;;;;;;10.32;2.80;;;24.90;91.60;;;;;;5051277;28;20029;-75
2022/08/23 10:25:12;;;;;;;13.02;2.30;;;24.80;91.70;;;;;;5033099;28;20025;-75
2022/08/23 10:30:47;;;;;;;6.68;1.88;;;24.80;91.90;;;;;;5040487;28;20083;-75
2022/08/23 10:33:31;;;;;;;9.48;1.90;;;24.90;91.90;;;;;;5041626;28;20067;-71
2022/08/23 10:36:27;;;;;;;5.18;1.88;;;24.90;91.70;;;;;;5048230;28;20025;-72
2022/08/23 10:38:55;;;;;;;6.88;1.70;;;24.90;91.60;;;;;;5042658;28;20037;-73
2022/08/23 10:41:37;;;;;;;5.25;1.63;;;25.00;91.70;;;;;;5049353;28;20021;-74
2022/08/23 10:44:29;;;;;;;7.78;1.75;;;24.90;91.60;;;;;;5035368;28;20494;-73
2022/08/23 10:47:10;;;;;;;25.58;3.33;;;25.00;91.60;;;;;;5044916;28;20140;-76
2022/08/23 10:49:38;;;;;;;5.88;1.55;;;25.30;90.90;;;;;;5046716;28;20032;-76
2022/08/23 10:52:07;;;;;;;8.45;1.92;;;25.20;91.20;;;;;;5051220;28;20025;-73
2022/08/23 10:54:47;;;;;;;6.25;1.42;;;25.20;91.30;;;;;;5050819;28;20051;-73
2022/08/23 10:57:15;;;;;;;9.30;1.77;;;25.10;91.40;;;;;;5051613;28;20025;-75
2022/08/23 10:59:44;;;;;;;6.05;1.67;;;25.20;91.40;;;;;;5053690;28;20067;-76
2022/08/23 11:02:41;;;;;;;9.07;1.50;;;25.20;91.40;;;;;;5041242;28;20037;-75
2022/08/23 11:05:29;;;;;;;4.68;1.08;;;25.20;91.40;;;;;;5035246;28;20021;-72
2022/08/23 11:08:05;;;;;;;4.57;1.27;;;25.20;91.30;;;;;;5052622;28;20029;-73
2022/08/23 11:10:38;;;;;;;6.22;1.50;;;25.20;91.40;;;;;;5053696;28;20497;-74
2022/08/23 11:13:21;;;;;;;6.57;1.17;;;25.30;91.30;;;;;;5052971;28;20054;-77
2022/08/23 11:16:04;;;;;;;5.45;1.38;;;25.30;91.30;;;;;;5053648;28;20021;-72
2022/08/23 11:18:32;;;;;;;5.57;1.40;;;25.20;91.30;;;;;;5051760;28;20021;-72
2022/08/23 11:21:04;;;;;;;2.85;1.23;;;25.30;91.30;;;;;;5054067;28;20021;-71
2022/08/23 11:23:41;;;;;;;6.78;1.10;;;25.30;91.30;;;;;;5044786;28;20475;-72
2022/08/23 11:26:30;;;;;;;3.78;1.23;;;25.30;91.20;;;;;;5046395;28;20021;-77
2022/08/23 11:29:04;;;;;;;5.03;0.98;;;25.30;91.20;;;;;;5013286;28;20174;-75
2022/08/23 11:31:46;;;;;;;3.40;1.15;;;25.40;91.20;;;;;;5055606;28;20392;-72
2022/08/23 11:34:22;;;;;;;5.73;0.97;;;25.40;91.10;;;;;;5055120;28;20025;-72
2022/08/23 11:37:27;;;;;;;3.05;0.90;;;25.40;91.10;;;;;;5053959;28;20660;-73
2022/08/23 11:39:59;;;;;;;3.58;1.40;;;25.40;91.10;;;;;;5055643;28;20045;-71
2022/08/23 11:42:33;;;;;;;5.30;0.93;;;25.40;91.00;;;;;;5052288;28;20085;-71
2022/08/23 11:44:59;;;;;;;2.33;0.70;;;25.40;91.10;;;;;;5054652;28;20103;-76
2022/08/23 11:47:42;;;;;;;4.35;1.20;;;25.40;91.10;;;;;;5055306;28;20017;-71
2022/08/23 11:50:21;;;;;;;6.63;0.88;;;25.50;91.10;;;;;;5042442;28;20060;-73
2022/08/23 11:53:19;;;;;;;3.13;0.80;;;25.40;91.00;;;;;;5039957;28;20018;-72
2022/08/23 11:56:19;;;;;;;3.22;1.10;;;25.50;91.00;;;;;;5039291;28;20547;-72
2022/08/23 11:58:57;;;;;;;3.95;1.35;;;25.50;91.40;;;;;;5042620;28;20017;-71
2022/08/23 12:01:32;;;;;;;2.03;0.88;;;25.50;91.70;;;;;;5049893;28;20017;-76
2022/08/23 12:04:00;;;;;;;5.53;1.40;;;25.50;92.20;;;;;;5037792;28;20028;-74
2022/08/23 12:06:57;;;;;;;3.95;1.23;;;25.60;92.90;;;;;;5053573;28;20066;-73
2022/08/23 12:09:23;;;;;;;3.47;0.95;;;25.60;93.20;;;;;;5047289;28;20120;-72
2022/08/23 12:11:54;;;;;;;4.45;1.00;;;25.70;93.80;;;;;;5052877;28;20171;-72
2022/08/23 12:14:39;;;;;;;7.03;1.42;;;25.70;94.40;;;;;;5053114;28;20029;-74
2022/08/23 12:17:52;;;;;;;4.10;1.30;;;25.70;94.90;;;;;;5048993;28;20026;-71
2022/08/23 12:20:20;;;;;;;2.05;0.98;;;25.70;94.60;;;;;;5041690;28;20040;-71
2022/08/23 12:22:58;;;;;;;5.15;1.45;;;25.80;94.30;;;;;;5053222;28;20029;-75
2022/08/23 12:25:29;;;;;;;3.13;1.50;;;25.80;95.00;;;;;;5055237;28;20485;-76
2022/08/23 12:28:02;;;;;;;2.92;0.70;;;25.70;94.50;;;;;;5053687;28;20074;-76
2022/08/23 12:30:46;;;;;;;2.25;1.20;;;25.70;93.70;;;;;;5053492;28;20125;-72
2022/08/23 12:33:39;;;;;;;5.68;1.05;;;25.80;93.30;;;;;;5054874;28;20028;-72
2022/08/23 12:36:20;;;;;;;3.25;0.77;;;25.80;93.00;;;;;;5048858;28;20425;-71
2022/08/23 12:39:06;;;;;;;3.10;0.55;;;25.90;92.80;;;;;;5040203;28;20020;-73
2022/08/23 12:42:04;;;;;;;2.88;0.80;;;25.80;92.80;;;;;;5042030;28;20037;-76
2022/08/23 12:44:30;;;;;;;1.92;0.50;;;25.80;92.60;;;;;;5041235;28;20096;-73
2022/08/23 12:47:07;;;;;;;1.83;0.60;;;25.90;92.40;;;;;;5031746;28;20025;-74
2022/08/23 12:49:34;;;;;;;1.40;0.70;;;25.90;92.30;;;;;;5033912;28;20009;-72
2022/08/23 12:52:09;;;;;;;2.13;0.55;;;25.90;92.20;;;;;;5033571;28;20034;-72
2022/08/23 12:54:40;;;;;;;1.05;0.80;;;25.80;92.10;;;;;;5036536;28;20021;-72
2022/08/23 12:57:10;;;;;;;1.23;0.70;;;25.90;91.90;;;;;;5047673;28;20025;-74
2022/08/23 12:59:55;;;;;;;1.30;0.50;;;25.90;91.80;;;;;;5053952;28;20275;-72
2022/08/23 13:02:32;;;;;;;2.45;0.55;;;25.90;91.70;;;;;;5052848;28;20027;-71
2022/08/23 13:05:09;;;;;;;1.40;0.57;;;26.00;91.60;;;;;;5054013;28;20025;-75